Weather at Monroe Regional Airport

Public forecast

Using degrees Fahrenheit for public forecast. Weather courtesy of forecast.io.

Current aviation weather report (METAR) for Monroe Regional Airport

Retrieved 2020/09/23 20:53 UTC (37 minutes ago):

KMLU 232053Z 07008KT 4SM -RA BR BKN006 BKN055 OVC110 21/19 A2985 RMK AO2 SLP106 P0005 60015 T02060194 58023

Aviation forecast (TAF) for Monroe Regional Airport

Retrieved 2020/09/23 18:24 UTC (3 hours ago):

TAF KMLU 231723Z 2318/2418 07008KT 2SM +SHRA OVC004 FM232200 05008KT 3SM SHRA OVC009 FM240300 04009KT 4SM SHRA OVC005 FM241000 01008KT P6SM VCSH OVC004 FM241700 36008KT P6SM VCSH OVC010